NCAR-RAP Real-Time Weather Data

Output produced by METARs form (17 October 2018  16:29 UTC)
found at http://weather.rap.ucar.edu/surface/
 
RJFR 171600Z 26004KT CAVOK 18/12 Q1013
RJFR 171500Z 29006KT CAVOK 18/13 Q1013
RJFR 171400Z 28004KT CAVOK 18/12 Q1014
RJFR 171300Z 26004KT CAVOK 18/12 Q1014
RJFR 171200Z 29005KT CAVOK 19/11 Q1014
RJFR 171100Z 32006KT CAVOK 19/11 Q1013
RJFR 171000Z 31006KT 9999 FEW030 SCT180 BKN/// 19/11 Q1013
RJFR 170900Z 32010KT 9999 FEW030 BKN/// 19/11 Q1013
RJFR 170800Z 32012KT 9999 FEW040 BKN/// 20/11 Q1012
RJFR 170700Z 29012KT 9999 FEW030 SCT050 BKN/// 21/12 Q1012
RJFR 170600Z 30013KT 9999 FEW030 BKN/// 21/12 Q1012
RJFR 170500Z 29013KT 9999 FEW030 SCT040 BKN/// 22/11 Q1012
RJFR 170400Z 30010KT 9999 FEW030 BKN/// 21/11 Q1012
RJFR 170300Z 35005KT 320V040 9999 FEW030 BKN/// 22/12 Q1012
RJFR 170200Z 31004KT 280V350 9999 FEW030 BKN/// 21/11 Q1013
RJFR 170100Z 01005KT 330V040 9999 FEW030 BKN/// 21/12 Q1013
RJFR 170000Z 30003KT 240V360 9999 FEW030 BKN/// 19/11 Q1013
RJFR 162300Z 32005KT 9999 FEW030 SCT080 BKN/// 19/12 Q1013
RJFR 162200Z VRB02KT 9999 FEW030 BKN090 18/12 Q1013
RJFR 162100Z 28006KT 9999 FEW030 BKN100 17/12 Q1012
RJFR 162000Z 30008KT 9999 FEW030 BKN070 BKN110 18/12 Q1012
RJFR 161900Z 34009KT 9999 FEW030 SCT050 BKN110 18/11 Q1012
RJFR 161800Z 30003KT 250V320 9999 FEW030 BKN080 19/10 Q1011
RJFR 161700Z 30004KT 9999 -RA FEW030 BKN070 19/10 Q1011
RJFR 161600Z 30004KT 9999 FEW030 SCT090 BKN110 19/10 Q1011
RJFR 161500Z 30005KT 9999 FEW030 BKN090 19/09 Q1012
RJFR 161400Z 30004KT 9999 FEW030 BKN090 19/10 Q1012
RJFR 161300Z 28004KT 9999 FEW030 BKN090 19/10 Q1012
RJFR 161200Z 36007KT 9999 FEW030 BKN090 19/10 Q1012
RJFR 161100Z 35010KT 9999 FEW030 BKN100 19/11 Q1012
RJFR 161000Z 33008KT 9999 FEW030 BKN100 20/11 Q1012
RJFR 160900Z 35010KT 9999 FEW030 BKN100 20/11 Q1012
RJFR 160800Z 03011KT 9999 FEW030 SCT100 BKN120 20/11 Q1011
RJFR 160739Z 02013KT 9999 FEW030 BKN070 BKN100 20/11 Q1011 RMK 1CU030 5AC070 7AC100 A2986
RJFR 160700Z 36003KT 330V060 9999 FEW030 BKN070 BKN100 20/13 Q1011
RJFR 160600Z VRB01KT 9999 FEW025 BKN120 20/13 Q1011
RJFR 160500Z 13004KT 090V180 9999 FEW030 BKN130 BKN/// 20/13 Q1011
RJFR 160400Z 13003KT 080V170 9999 FEW030 BKN140 BKN/// 20/13 Q1012
RJFR 160300Z 14003KT 100V170 9999 FEW030 BKN150 BKN/// 20/13 Q1013
RJFR 160200Z 05003KT 350V080 9999 FEW030 BKN/// 19/12 Q1014
RJFR 160100Z 03004KT 9999 FEW025 BKN/// 19/12 Q1014
RJFR 160000Z 01005KT 9999 FEW025 BKN/// 19/12 Q1015
RJFR 152300Z 02004KT 340V050 9999 FEW030 BKN/// 18/12 Q1015
RJFR 152200Z 32004KT 9999 FEW030 BKN/// 17/12 Q1015
RJFR 152100Z 30003KT 9999 FEW030 BKN/// 17/12 Q1015
RJFR 152000Z 27002KT 9999 FEW030 BKN/// 17/12 Q1015
RJFR 151900Z 30003KT 9999 FEW030 BKN/// 17/12 Q1015
RJFR 151800Z 27003KT 9999 FEW030 BKN/// 18/11 Q1016
RJFR 151700Z 30004KT 9999 FEW030 BKN/// 18/12 Q1016
RJFR 151600Z 31004KT 9999 FEW030 BKN/// 18/12 Q1016
RJFR 151500Z 26003KT 9999 FEW030 BKN/// 18/12 Q1017
RJFR 151400Z 30005KT 9999 FEW030 BKN/// 18/12 Q1017
RJFR 151300Z 30005KT 9999 FEW030 BKN/// 18/12 Q1017
RJFR 151200Z 32005KT 9999 FEW030 SCT/// 18/12 Q1017
RJFR 151100Z 34007KT 9999 FEW030 SCT/// 18/12 Q1017
RJFR 151000Z 31007KT 9999 FEW020 BKN/// 19/12 Q1017
RJFR 150900Z 31008KT 9999 FEW020 BKN/// 20/12 Q1016
RJFR 150800Z 31012KT 9999 FEW040 BKN/// 21/10 Q1016
RJFR 150700Z 30011KT 9999 FEW030 BKN/// 22/10 Q1016
RJFR 150600Z 31008KT 270V340 9999 FEW030 BKN/// 22/09 Q1016
RJFR 150500Z VRB02KT 9999 FEW030 BKN/// 22/09 Q1016